createdAt,value
2023-02-11T00:00:28.639Z,1032.24
2023-02-11T00:01:28.637Z,1032.16
2023-02-11T00:02:28.645Z,1032.18
2023-02-11T00:03:28.652Z,1032.20
2023-02-11T00:04:28.582Z,1032.20
2023-02-11T00:05:28.561Z,1032.19
2023-02-11T00:06:28.606Z,1032.17
2023-02-11T00:07:28.562Z,1032.21
2023-02-11T00:08:28.530Z,1032.16
2023-02-11T00:09:30.926Z,1032.15
2023-02-11T00:10:28.524Z,1032.14
2023-02-11T00:11:28.514Z,1032.18
2023-02-11T00:12:28.493Z,1032.17
2023-02-11T00:13:28.469Z,1032.16
2023-02-11T00:14:28.453Z,1032.18
2023-02-11T00:15:28.433Z,1032.22
2023-02-11T00:16:28.465Z,1032.18
2023-02-11T00:17:28.427Z,1032.16
2023-02-11T00:18:28.402Z,1032.17
2023-02-11T00:19:28.384Z,1032.06
2023-02-11T00:20:28.373Z,1032.07
2023-02-11T00:21:28.403Z,1032.04
2023-02-11T00:22:28.376Z,1032.00
2023-02-11T00:23:28.418Z,1032.04
2023-02-11T00:24:28.324Z,1032.04
2023-02-11T00:25:28.346Z,1031.98
2023-02-11T00:26:28.309Z,1031.97
2023-02-11T00:27:28.295Z,1031.97
2023-02-11T00:28:28.317Z,1031.87
2023-02-11T00:29:28.246Z,1031.92
2023-02-11T00:30:28.298Z,1031.89
2023-02-11T00:31:28.339Z,1031.85
2023-02-11T00:32:28.223Z,1031.83
2023-02-11T00:33:28.220Z,1031.84
2023-02-11T00:34:28.182Z,1031.78
2023-02-11T00:35:28.170Z,1031.76
2023-02-11T00:36:28.158Z,1031.76
2023-02-11T00:37:28.159Z,1031.73
2023-02-11T00:38:28.135Z,1031.74
2023-02-11T00:39:28.126Z,1031.76
2023-02-11T00:40:28.099Z,1031.77
2023-02-11T00:41:28.090Z,1031.78
2023-02-11T00:42:28.081Z,1031.81
2023-02-11T00:43:28.081Z,1031.81
2023-02-11T00:44:28.051Z,1031.89
2023-02-11T00:45:28.053Z,1031.93
2023-02-11T00:46:28.166Z,1031.96
2023-02-11T00:47:28.032Z,1031.96
2023-02-11T00:48:27.992Z,1031.99
2023-02-11T00:49:28.000Z,1031.92
2023-02-11T00:50:27.974Z,1031.95
2023-02-11T00:51:27.968Z,1031.93
2023-02-11T00:52:27.947Z,1031.97
2023-02-11T00:53:27.950Z,1031.96
2023-02-11T00:54:29.946Z,1031.98
2023-02-11T00:55:27.912Z,1031.97
2023-02-11T00:56:27.890Z,1031.98
2023-02-11T00:57:27.882Z,1031.99
2023-02-11T00:58:27.886Z,1032.01
2023-02-11T00:59:27.850Z,1032.00
2023-02-11T01:00:27.841Z,1032.03
2023-02-11T01:01:28.008Z,1031.97
2023-02-11T01:02:27.823Z,1031.95
2023-02-11T01:03:27.818Z,1031.91
2023-02-11T01:04:27.782Z,1031.85
2023-02-11T01:05:27.790Z,1031.87
2023-02-11T01:06:27.778Z,1031.86
2023-02-11T01:07:27.768Z,1031.85
2023-02-11T01:08:27.756Z,1031.87
2023-02-11T01:09:27.724Z,1031.78
2023-02-11T01:10:27.705Z,1031.81
2023-02-11T01:11:27.699Z,1031.80
2023-02-11T01:12:27.695Z,1031.79
2023-02-11T01:13:27.697Z,1031.78
2023-02-11T01:14:27.667Z,1031.79
2023-02-11T01:15:27.794Z,1031.82
2023-02-11T01:16:27.646Z,1031.85
2023-02-11T01:17:27.625Z,1031.85
2023-02-11T01:18:27.615Z,1031.89
2023-02-11T01:19:27.607Z,1031.93
2023-02-11T01:20:27.586Z,1031.91
2023-02-11T01:21:27.618Z,1031.92
2023-02-11T01:22:27.547Z,1031.88
2023-02-11T01:23:27.568Z,1031.85
2023-02-11T01:24:27.548Z,1031.90
2023-02-11T01:25:27.540Z,1031.85
2023-02-11T01:26:27.513Z,1031.87
2023-02-11T01:27:27.488Z,1031.90
2023-02-11T01:28:27.533Z,1031.86
2023-02-11T01:29:27.461Z,1031.89
2023-02-11T01:30:27.450Z,1031.92
2023-02-11T01:31:27.593Z,1031.96
2023-02-11T01:32:27.442Z,1031.95
2023-02-11T01:33:27.428Z,1031.95
2023-02-11T01:34:27.400Z,1031.92
2023-02-11T01:35:27.389Z,1031.92
2023-02-11T01:36:27.382Z,1031.89
2023-02-11T01:37:27.359Z,1031.93
2023-02-11T01:38:27.357Z,1031.88
2023-02-11T01:39:27.342Z,1031.90
2023-02-11T01:40:27.329Z,1031.95
2023-02-11T01:41:27.334Z,1031.91
2023-02-11T01:42:27.293Z,1031.87
2023-02-11T01:43:27.291Z,1031.93
2023-02-11T01:44:27.269Z,1031.92
2023-02-11T01:45:27.277Z,1031.96
2023-02-11T01:46:34.294Z,1032.06
2023-02-11T01:47:27.230Z,1032.05
2023-02-11T01:48:27.927Z,1032.05
2023-02-11T01:49:27.266Z,1032.08
2023-02-11T01:50:27.200Z,1032.09
2023-02-11T01:51:27.206Z,1032.10
2023-02-11T01:52:27.168Z,1032.15
2023-02-11T01:53:27.169Z,1032.13
2023-02-11T01:54:27.141Z,1032.09
2023-02-11T01:55:27.125Z,1032.04
2023-02-11T01:56:27.108Z,1032.06
2023-02-11T01:57:27.092Z,1032.03
2023-02-11T01:58:27.119Z,1031.99
2023-02-11T01:59:27.086Z,1031.98
2023-02-11T02:00:27.072Z,1031.93
2023-02-11T02:01:27.141Z,1031.90
2023-02-11T02:02:27.039Z,1031.92
2023-02-11T02:03:27.069Z,1031.84
2023-02-11T02:04:27.010Z,1031.85
2023-02-11T02:05:26.993Z,1031.83
2023-02-11T02:06:26.984Z,1031.81
2023-02-11T02:07:26.977Z,1031.74
2023-02-11T02:08:26.966Z,1031.79
2023-02-11T02:09:26.969Z,1031.81
2023-02-11T02:10:26.922Z,1031.80
2023-02-11T02:11:26.922Z,1031.77
2023-02-11T02:12:26.922Z,1031.75
2023-02-11T02:13:26.901Z,1031.66
2023-02-11T02:14:26.870Z,1031.62
2023-02-11T02:15:26.871Z,1031.65
2023-02-11T02:16:26.914Z,1031.56
2023-02-11T02:17:26.838Z,1031.56
2023-02-11T02:18:26.857Z,1031.59
2023-02-11T02:19:26.812Z,1031.57
2023-02-11T02:20:26.780Z,1031.56
2023-02-11T02:21:26.782Z,1031.61
2023-02-11T02:22:26.781Z,1031.59
2023-02-11T02:23:26.771Z,1031.60
2023-02-11T02:24:26.772Z,1031.60
2023-02-11T02:25:26.719Z,1031.64
2023-02-11T02:26:26.750Z,1031.70
2023-02-11T02:27:26.696Z,1031.73
2023-02-11T02:28:26.734Z,1031.78
2023-02-11T02:29:26.691Z,1031.78
2023-02-11T02:30:26.698Z,1031.72
2023-02-11T02:31:26.702Z,1031.70
2023-02-11T02:32:26.624Z,1031.70
2023-02-11T02:33:26.643Z,1031.62
2023-02-11T02:34:26.609Z,1031.61
2023-02-11T02:35:26.625Z,1031.62
2023-02-11T02:36:26.571Z,1031.60
2023-02-11T02:37:26.567Z,1031.57
2023-02-11T02:38:26.593Z,1031.53
2023-02-11T02:39:26.547Z,1031.53
2023-02-11T02:40:26.523Z,1031.49
2023-02-11T02:41:26.508Z,1031.50
2023-02-11T02:42:26.496Z,1031.52
2023-02-11T02:43:26.509Z,1031.54
2023-02-11T02:44:26.470Z,1031.51
2023-02-11T02:45:26.460Z,1031.43
2023-02-11T02:46:26.567Z,1031.48
2023-02-11T02:47:26.473Z,1031.43
2023-02-11T02:48:26.439Z,1031.52
2023-02-11T02:49:26.403Z,1031.51
2023-02-11T02:50:26.399Z,1031.53
2023-02-11T02:51:26.425Z,1031.56
2023-02-11T02:52:26.362Z,1031.51
2023-02-11T02:53:26.371Z,1031.52
2023-02-11T02:54:26.335Z,1031.47
2023-02-11T02:55:26.337Z,1031.46
2023-02-11T02:56:26.314Z,1031.47
2023-02-11T02:57:26.333Z,1031.44
2023-02-11T02:58:26.297Z,1031.50
2023-02-11T02:59:26.273Z,1031.48
2023-02-11T03:00:26.320Z,1031.54
2023-02-11T03:01:26.270Z,1031.55
2023-02-11T03:02:26.255Z,1031.54
2023-02-11T03:03:26.291Z,1031.57
2023-02-11T03:04:26.213Z,1031.55
2023-02-11T03:05:26.205Z,1031.59
2023-02-11T03:06:26.201Z,1031.60
2023-02-11T03:07:26.207Z,1031.65
2023-02-11T03:08:26.174Z,1031.65
2023-02-11T03:09:26.144Z,1031.68
2023-02-11T03:10:26.146Z,1031.65
2023-02-11T03:11:26.175Z,1031.63
2023-02-11T03:12:26.111Z,1031.60
2023-02-11T03:13:26.109Z,1031.54
2023-02-11T03:14:26.077Z,1031.50
2023-02-11T03:15:26.067Z,1031.52
2023-02-11T03:16:26.134Z,1031.44
2023-02-11T03:17:26.040Z,1031.42
2023-02-11T03:18:26.049Z,1031.45
2023-02-11T03:19:26.016Z,1031.40
2023-02-11T03:20:25.999Z,1031.34
2023-02-11T03:21:25.993Z,1031.30
2023-02-11T03:22:25.978Z,1031.34
2023-02-11T03:23:25.968Z,1031.28
2023-02-11T03:24:25.967Z,1031.22
2023-02-11T03:25:25.942Z,1031.19
2023-02-11T03:26:25.939Z,1031.20
2023-02-11T03:27:25.919Z,1031.16
2023-02-11T03:28:25.918Z,1031.15
2023-02-11T03:29:25.898Z,1031.13
2023-02-11T03:30:25.858Z,1031.10
2023-02-11T03:31:25.933Z,1031.12
2023-02-11T03:32:25.866Z,1031.11
2023-02-11T03:33:25.879Z,1031.14
2023-02-11T03:34:25.834Z,1031.13
2023-02-11T03:35:25.803Z,1031.15
2023-02-11T03:36:25.779Z,1031.16
2023-02-11T03:37:25.788Z,1031.19
2023-02-11T03:38:25.782Z,1031.17
2023-02-11T03:39:25.788Z,1031.15
2023-02-11T03:40:25.732Z,1031.18
2023-02-11T03:41:25.742Z,1031.10
2023-02-11T03:42:25.698Z,1031.16
2023-02-11T03:43:25.689Z,1031.17
2023-02-11T03:44:25.752Z,1031.18
2023-02-11T03:45:25.714Z,1031.22
2023-02-11T03:46:25.671Z,1031.24
2023-02-11T03:47:25.651Z,1031.23
2023-02-11T03:48:25.632Z,1031.28
2023-02-11T03:49:25.631Z,1031.28
2023-02-11T03:50:25.605Z,1031.28
2023-02-11T03:51:25.631Z,1031.26
2023-02-11T03:52:25.619Z,1031.33
2023-02-11T03:53:25.584Z,1031.32
2023-02-11T03:54:25.567Z,1031.39
2023-02-11T03:55:25.558Z,1031.34
2023-02-11T03:56:25.527Z,1031.34
2023-02-11T03:57:25.511Z,1031.33
2023-02-11T03:58:25.500Z,1031.36
2023-02-11T03:59:25.551Z,1031.32
2023-02-11T04:00:25.483Z,1031.32
2023-02-11T04:01:25.485Z,1031.30
2023-02-11T04:02:25.449Z,1031.30
2023-02-11T04:03:25.481Z,1031.22
2023-02-11T04:04:25.432Z,1031.28
2023-02-11T04:05:25.421Z,1031.23
2023-02-11T04:06:25.404Z,1031.27
2023-02-11T04:07:25.392Z,1031.25
2023-02-11T04:08:25.365Z,1031.28
2023-02-11T04:09:25.371Z,1031.23
2023-02-11T04:10:25.354Z,1031.19
2023-02-11T04:11:25.338Z,1031.20
2023-02-11T04:12:25.340Z,1031.16
2023-02-11T04:13:25.319Z,1031.12
2023-02-11T04:14:25.328Z,1031.11
2023-02-11T04:15:25.293Z,1031.13
2023-02-11T04:16:25.296Z,1031.11
2023-02-11T04:17:25.257Z,1031.18
2023-02-11T04:18:25.246Z,1031.17
2023-02-11T04:19:25.244Z,1031.21
2023-02-11T04:20:25.227Z,1031.20
2023-02-11T04:21:25.192Z,1031.19
2023-02-11T04:22:25.200Z,1031.17
2023-02-11T04:23:25.175Z,1031.06
2023-02-11T04:24:25.154Z,1031.07
2023-02-11T04:25:25.170Z,1031.02
2023-02-11T04:26:25.131Z,1031.01
2023-02-11T04:27:25.124Z,1031.00
2023-02-11T04:28:25.160Z,1031.03
2023-02-11T04:29:25.094Z,1031.05
2023-02-11T04:30:25.100Z,1031.09
2023-02-11T04:31:25.190Z,1031.15
2023-02-11T04:32:25.055Z,1031.13
2023-02-11T04:33:25.060Z,1031.12
2023-02-11T04:34:25.025Z,1031.10
2023-02-11T04:35:25.029Z,1031.08
2023-02-11T04:36:25.002Z,1031.12
2023-02-11T04:37:24.993Z,1031.12
2023-02-11T04:38:24.975Z,1031.19
2023-02-11T04:39:24.988Z,1031.17
2023-02-11T04:40:24.973Z,1031.19
2023-02-11T04:41:24.936Z,1031.17
2023-02-11T04:42:24.925Z,1031.15
2023-02-11T04:43:24.905Z,1031.17
2023-02-11T04:44:24.898Z,1031.17
2023-02-11T04:45:24.909Z,1031.18
2023-02-11T04:46:24.939Z,1031.14
2023-02-11T04:47:24.856Z,1031.20
2023-02-11T04:48:24.846Z,1031.20
2023-02-11T04:49:24.828Z,1031.21
2023-02-11T04:50:24.865Z,1031.27
2023-02-11T04:51:24.811Z,1031.31
2023-02-11T04:52:24.798Z,1031.35
2023-02-11T04:53:24.777Z,1031.37
2023-02-11T04:54:24.779Z,1031.36
2023-02-11T04:55:24.764Z,1031.37
2023-02-11T04:56:24.740Z,1031.36
2023-02-11T04:57:24.741Z,1031.40
2023-02-11T04:58:24.733Z,1031.37
2023-02-11T04:59:24.697Z,1031.37
2023-02-11T05:00:24.700Z,1031.37
2023-02-11T05:01:24.721Z,1031.38
2023-02-11T05:02:24.663Z,1031.36
2023-02-11T05:03:24.651Z,1031.34
2023-02-11T05:04:24.741Z,1031.34
2023-02-11T05:05:24.637Z,1031.32
2023-02-11T05:06:24.638Z,1031.30
2023-02-11T05:07:24.595Z,1031.31
2023-02-11T05:08:24.588Z,1031.31
2023-02-11T05:09:24.579Z,1031.29
2023-02-11T05:10:24.568Z,1031.26
2023-02-11T05:11:24.572Z,1031.22
2023-02-11T05:12:24.616Z,1031.26
2023-02-11T05:13:24.554Z,1031.24
2023-02-11T05:14:24.533Z,1031.28
2023-02-11T05:15:24.538Z,1031.28
2023-02-11T05:16:24.522Z,1031.29
2023-02-11T05:17:24.466Z,1031.35
2023-02-11T05:18:24.462Z,1031.30
2023-02-11T05:19:24.429Z,1031.32
2023-02-11T05:20:24.430Z,1031.30
2023-02-11T05:21:24.398Z,1031.31
2023-02-11T05:22:24.399Z,1031.30
2023-02-11T05:23:24.377Z,1031.25
2023-02-11T05:24:24.369Z,1031.25
2023-02-11T05:25:24.409Z,1031.22
2023-02-11T05:26:24.360Z,1031.21
2023-02-11T05:27:24.330Z,1031.22
2023-02-11T05:28:24.426Z,1031.22
2023-02-11T05:29:24.312Z,1031.15
2023-02-11T05:30:24.304Z,1031.16
2023-02-11T05:31:24.282Z,1031.16
2023-02-11T05:32:24.273Z,1031.21
2023-02-11T05:33:24.265Z,1031.13
2023-02-11T05:34:24.251Z,1031.17
2023-02-11T05:35:24.245Z,1031.18
2023-02-11T05:36:24.239Z,1031.17
2023-02-11T05:37:24.307Z,1031.18
2023-02-11T05:38:24.195Z,1031.23
2023-02-11T05:39:24.172Z,1031.27
2023-02-11T05:40:24.164Z,1031.25
2023-02-11T05:41:24.150Z,1031.23
2023-02-11T05:42:24.134Z,1031.23
2023-02-11T05:43:24.120Z,1031.21
2023-02-11T05:44:24.109Z,1031.19
2023-02-11T05:45:24.096Z,1031.16
2023-02-11T05:46:24.261Z,1031.11
2023-02-11T05:47:24.078Z,1031.11
2023-02-11T05:48:24.059Z,1031.08
2023-02-11T05:49:24.093Z,1031.07
2023-02-11T05:50:24.033Z,1031.05
2023-02-11T05:51:24.055Z,1031.00
2023-02-11T05:52:23.999Z,1030.95
2023-02-11T05:53:23.985Z,1030.98
2023-02-11T05:54:23.998Z,1030.95
2023-02-11T05:55:23.952Z,1030.94
2023-02-11T05:56:23.972Z,1030.97
2023-02-11T05:57:23.922Z,1031.01
2023-02-11T05:58:23.935Z,1030.96
2023-02-11T05:59:23.922Z,1031.01
2023-02-11T06:00:23.902Z,1030.98
2023-02-11T06:01:23.885Z,1031.02
2023-02-11T06:02:23.917Z,1030.99
2023-02-11T06:03:23.858Z,1031.00
2023-02-11T06:04:23.893Z,1031.03
2023-02-11T06:05:23.835Z,1031.06
2023-02-11T06:06:23.823Z,1031.07
2023-02-11T06:07:23.812Z,1031.06
2023-02-11T06:08:23.810Z,1031.03
2023-02-11T06:09:23.772Z,1031.06
2023-02-11T06:10:23.803Z,1031.10
2023-02-11T06:11:23.764Z,1031.11
2023-02-11T06:12:23.742Z,1031.11
2023-02-11T06:13:23.714Z,1031.10
2023-02-11T06:14:23.744Z,1031.13
2023-02-11T06:15:23.709Z,1031.14
2023-02-11T06:16:23.755Z,1031.12
2023-02-11T06:17:23.664Z,1031.17
2023-02-11T06:18:23.683Z,1031.13
2023-02-11T06:19:23.637Z,1031.13
2023-02-11T06:20:23.673Z,1031.12
2023-02-11T06:21:28.578Z,1031.10
2023-02-11T06:22:24.604Z,1031.11
2023-02-11T06:23:23.632Z,1031.07
2023-02-11T06:24:47.778Z,1031.04
2023-02-11T06:25:24.571Z,1031.07
2023-02-11T06:26:23.611Z,1031.09
2023-02-11T06:27:23.567Z,1031.08
2023-02-11T06:28:23.578Z,1031.16
2023-02-11T06:29:23.506Z,1031.17
2023-02-11T06:30:23.517Z,1031.17
2023-02-11T06:31:23.587Z,1031.18
2023-02-11T06:32:43.464Z,1031.17
2023-02-11T06:33:24.458Z,1031.16
2023-02-11T06:34:23.468Z,1031.13
2023-02-11T06:35:23.450Z,1031.18
2023-02-11T06:36:23.479Z,1031.17
2023-02-11T06:37:23.408Z,1031.15
2023-02-11T06:38:23.425Z,1031.16
2023-02-11T06:39:23.376Z,1031.22
2023-02-11T06:40:23.432Z,1031.23
2023-02-11T06:41:23.367Z,1031.25
2023-02-11T06:42:23.361Z,1031.23
2023-02-11T06:43:23.331Z,1031.24
2023-02-11T06:44:23.318Z,1031.21
2023-02-11T06:45:23.297Z,1031.21
2023-02-11T06:46:23.325Z,1031.18
2023-02-11T06:47:23.320Z,1031.15
2023-02-11T06:48:23.274Z,1031.16
2023-02-11T06:49:23.295Z,1031.17
2023-02-11T06:50:23.264Z,1031.23
2023-02-11T06:51:23.243Z,1031.27
2023-02-11T06:52:23.330Z,1031.27
2023-02-11T06:53:23.203Z,1031.18
2023-02-11T06:54:23.201Z,1031.18
2023-02-11T06:55:23.195Z,1031.18
2023-02-11T06:56:23.195Z,1031.21
2023-02-11T06:57:23.182Z,1031.24
2023-02-11T06:58:23.171Z,1031.24
2023-02-11T06:59:23.130Z,1031.28
2023-02-11T07:00:23.159Z,1031.23
2023-02-11T07:01:23.136Z,1031.23
2023-02-11T07:02:23.099Z,1031.23
2023-02-11T07:03:23.071Z,1031.27
2023-02-11T07:04:23.077Z,1031.21
2023-02-11T07:05:23.056Z,1031.20
2023-02-11T07:06:23.362Z,1031.23
2023-02-11T07:07:23.050Z,1031.23
2023-02-11T07:08:23.021Z,1031.24
2023-02-11T07:09:23.013Z,1031.20
2023-02-11T07:10:22.993Z,1031.26
2023-02-11T07:11:23.003Z,1031.22
2023-02-11T07:12:22.955Z,1031.19
2023-02-11T07:13:22.935Z,1031.21
2023-02-11T07:14:22.932Z,1031.17
2023-02-11T07:15:22.939Z,1031.22
2023-02-11T07:16:23.024Z,1031.22
2023-02-11T07:17:22.895Z,1031.28
2023-02-11T07:18:22.898Z,1031.32
2023-02-11T07:19:22.897Z,1031.25
2023-02-11T07:20:22.870Z,1031.31
2023-02-11T07:21:22.878Z,1031.33
2023-02-11T07:22:22.830Z,1031.32
2023-02-11T07:23:22.828Z,1031.36
2023-02-11T07:24:22.805Z,1031.36
2023-02-11T07:25:22.783Z,1031.37
2023-02-11T07:26:22.801Z,1031.37
2023-02-11T07:27:22.754Z,1031.36
2023-02-11T07:28:22.787Z,1031.33
2023-02-11T07:29:22.746Z,1031.33
2023-02-11T07:30:22.724Z,1031.33
2023-02-11T07:31:22.830Z,1031.36
2023-02-11T07:32:22.707Z,1031.38
2023-02-11T07:33:22.673Z,1031.38
2023-02-11T07:34:22.738Z,1031.36
2023-02-11T07:35:22.655Z,1031.36
2023-02-11T07:36:22.647Z,1031.42
2023-02-11T07:37:22.633Z,1031.43
2023-02-11T07:38:22.614Z,1031.45
2023-02-11T07:39:22.602Z,1031.50
2023-02-11T07:40:22.601Z,1031.53
2023-02-11T07:41:22.591Z,1031.52
2023-02-11T07:42:22.590Z,1031.52
2023-02-11T07:43:22.557Z,1031.51
2023-02-11T07:44:22.552Z,1031.51
2023-02-11T07:45:22.548Z,1031.52
2023-02-11T07:47:31.154Z,1031.56
2023-02-11T07:48:22.474Z,1031.60
2023-02-11T07:49:22.460Z,1031.61
2023-02-11T07:50:22.453Z,1031.58
2023-02-11T07:51:22.433Z,1031.61
2023-02-11T07:52:22.441Z,1031.67
2023-02-11T07:53:22.401Z,1031.62
2023-02-11T07:54:22.432Z,1031.64
2023-02-11T07:55:22.402Z,1031.67
2023-02-11T07:56:22.373Z,1031.68
2023-02-11T07:57:22.381Z,1031.69
2023-02-11T07:58:22.350Z,1031.70
2023-02-11T07:59:22.322Z,1031.67
2023-02-11T08:00:22.324Z,1031.68
2023-02-11T08:01:22.337Z,1031.68
2023-02-11T08:02:22.366Z,1031.66
2023-02-11T08:03:22.273Z,1031.64
2023-02-11T08:04:22.283Z,1031.60
2023-02-11T08:05:22.265Z,1031.68
2023-02-11T08:06:22.248Z,1031.70
2023-02-11T08:07:22.260Z,1031.70
2023-02-11T08:08:22.212Z,1031.74
2023-02-11T08:09:22.212Z,1031.72
2023-02-11T08:10:22.203Z,1031.75
2023-02-11T08:11:22.166Z,1031.74
2023-02-11T08:12:22.175Z,1031.71
2023-02-11T08:13:22.152Z,1031.75
2023-02-11T08:14:22.142Z,1031.72
2023-02-11T08:15:22.117Z,1031.71
2023-02-11T08:16:22.169Z,1031.68
2023-02-11T08:17:22.111Z,1031.68
2023-02-11T08:18:22.089Z,1031.68
2023-02-11T08:19:22.084Z,1031.66
2023-02-11T08:20:22.059Z,1031.64
2023-02-11T08:21:22.051Z,1031.60
2023-02-11T08:22:22.032Z,1031.62
2023-02-11T08:23:22.012Z,1031.64
2023-02-11T08:24:21.988Z,1031.66
2023-02-11T08:25:21.972Z,1031.67
2023-02-11T08:26:21.980Z,1031.66
2023-02-11T08:27:21.966Z,1031.62
2023-02-11T08:28:21.946Z,1031.72
2023-02-11T08:29:21.927Z,1031.73
2023-02-11T08:30:21.908Z,1031.74
2023-02-11T08:31:22.030Z,1031.73
2023-02-11T08:32:21.971Z,1031.73
2023-02-11T08:33:21.865Z,1031.76
2023-02-11T08:34:21.863Z,1031.78
2023-02-11T08:35:21.836Z,1031.76
2023-02-11T08:36:21.827Z,1031.74
2023-02-11T08:37:21.828Z,1031.77
2023-02-11T08:38:21.807Z,1031.78
2023-02-11T08:39:21.792Z,1031.82
2023-02-11T08:40:21.775Z,1031.82
2023-02-11T08:41:21.778Z,1031.82
2023-02-11T08:42:21.758Z,1031.87
2023-02-11T08:43:21.738Z,1031.85
2023-02-11T08:44:21.731Z,1031.89
2023-02-11T08:45:21.720Z,1031.91
2023-02-11T08:46:21.717Z,1031.86
2023-02-11T08:47:21.697Z,1031.90
2023-02-11T08:48:21.677Z,1031.92
2023-02-11T08:49:21.651Z,1031.87
2023-02-11T08:50:21.641Z,1031.88
2023-02-11T08:51:21.625Z,1031.86
2023-02-11T08:52:21.649Z,1031.87
2023-02-11T08:53:21.612Z,1031.84
2023-02-11T08:54:21.589Z,1031.85
2023-02-11T08:55:21.584Z,1031.90
2023-02-11T08:56:21.567Z,1031.90
2023-02-11T08:57:21.567Z,1031.87
2023-02-11T08:58:21.558Z,1031.88
2023-02-11T08:59:21.530Z,1031.92
2023-02-11T09:00:21.511Z,1031.99
2023-02-11T09:01:22.997Z,1031.98
2023-02-11T09:02:21.577Z,1031.98
2023-02-11T09:03:21.469Z,1032.00
2023-02-11T09:04:21.450Z,1031.99
2023-02-11T09:05:21.447Z,1031.99
2023-02-11T09:06:21.427Z,1032.00
2023-02-11T09:07:21.448Z,1032.03
2023-02-11T09:08:21.408Z,1032.03
2023-02-11T09:09:21.397Z,1031.98
2023-02-11T09:10:21.370Z,1032.03
2023-02-11T09:11:21.361Z,1032.03
2023-02-11T09:12:21.360Z,1031.99
2023-02-11T09:13:21.350Z,1032.10
2023-02-11T09:14:21.373Z,1032.05
2023-02-11T09:15:21.330Z,1032.10
2023-02-11T09:16:21.368Z,1032.05
2023-02-11T09:17:21.299Z,1032.04
2023-02-11T09:18:21.276Z,1032.08
2023-02-11T09:19:21.281Z,1032.10
2023-02-11T09:20:21.251Z,1032.12
2023-02-11T09:21:21.231Z,1032.12
2023-02-11T09:22:21.221Z,1032.13
2023-02-11T09:23:21.226Z,1032.18
2023-02-11T09:24:21.192Z,1032.22
2023-02-11T09:25:21.182Z,1032.21
2023-02-11T09:26:21.181Z,1032.19
2023-02-11T09:27:21.164Z,1032.22
2023-02-11T09:28:21.208Z,1032.24
2023-02-11T09:29:21.132Z,1032.23
2023-02-11T09:30:21.123Z,1032.24
2023-02-11T09:31:21.224Z,1032.24
2023-02-11T09:32:21.084Z,1032.21
2023-02-11T09:33:21.103Z,1032.19
2023-02-11T09:34:21.063Z,1032.22
2023-02-11T09:35:21.079Z,1032.26
2023-02-11T09:36:21.052Z,1032.26
2023-02-11T09:37:21.043Z,1032.27
2023-02-11T09:38:21.015Z,1032.24
2023-02-11T09:39:21.016Z,1032.29
2023-02-11T09:40:20.973Z,1032.27
2023-02-11T09:41:20.978Z,1032.27
2023-02-11T09:42:20.958Z,1032.24
2023-02-11T09:43:20.954Z,1032.28
2023-02-11T09:44:20.937Z,1032.24
2023-02-11T09:45:20.915Z,1032.26
2023-02-11T09:46:20.958Z,1032.25
2023-02-11T09:47:20.892Z,1032.29
2023-02-11T09:48:20.904Z,1032.26
2023-02-11T09:49:20.874Z,1032.24
2023-02-11T09:50:20.847Z,1032.23
2023-02-11T09:51:20.838Z,1032.30
2023-02-11T09:52:20.825Z,1032.24
2023-02-11T09:53:20.830Z,1032.29
2023-02-11T09:54:20.796Z,1032.30
2023-02-11T09:55:20.800Z,1032.31
2023-02-11T09:56:20.766Z,1032.34
2023-02-11T09:57:28.626Z,1032.39
2023-02-11T09:58:21.758Z,1032.36
2023-02-11T09:59:20.735Z,1032.41
2023-02-11T10:00:20.737Z,1032.42
2023-02-11T10:01:21.097Z,1032.42
2023-02-11T10:02:20.696Z,1032.45
2023-02-11T10:03:20.688Z,1032.46
2023-02-11T10:04:20.725Z,1032.57
2023-02-11T10:05:20.668Z,1032.54
2023-02-11T10:06:20.650Z,1032.56
2023-02-11T10:07:20.630Z,1032.59
2023-02-11T10:08:20.620Z,1032.63
2023-02-11T10:09:20.629Z,1032.60
2023-02-11T10:10:20.634Z,1032.59
2023-02-11T10:11:31.238Z,1032.63
2023-02-11T10:12:21.562Z,1032.67
2023-02-11T10:13:20.562Z,1032.65
2023-02-11T10:14:20.534Z,1032.63
2023-02-11T10:15:20.526Z,1032.61
2023-02-11T10:16:20.507Z,1032.61
2023-02-11T10:17:20.502Z,1032.61
2023-02-11T10:18:20.506Z,1032.61
2023-02-11T10:19:20.487Z,1032.63
2023-02-11T10:20:20.464Z,1032.65
2023-02-11T10:21:20.450Z,1032.66
2023-02-11T10:22:20.433Z,1032.64
2023-02-11T10:23:20.444Z,1032.65
2023-02-11T10:24:20.413Z,1032.65
2023-02-11T10:25:20.392Z,1032.71
2023-02-11T10:26:20.374Z,1032.66
2023-02-11T10:27:20.366Z,1032.65
2023-02-11T10:28:20.417Z,1032.62
2023-02-11T10:29:20.350Z,1032.65
2023-02-11T10:30:20.341Z,1032.63
2023-02-11T10:31:20.415Z,1032.67
2023-02-11T10:32:20.311Z,1032.62
2023-02-11T10:33:20.312Z,1032.65
2023-02-11T10:34:20.262Z,1032.65
2023-02-11T10:35:20.265Z,1032.64
2023-02-11T10:36:20.242Z,1032.67
2023-02-11T10:37:20.239Z,1032.71
2023-02-11T10:38:20.216Z,1032.68
2023-02-11T10:39:20.227Z,1032.68
2023-02-11T10:40:20.191Z,1032.69
2023-02-11T10:41:20.187Z,1032.65
2023-02-11T10:42:20.162Z,1032.66
2023-02-11T10:43:20.153Z,1032.67
2023-02-11T10:44:20.143Z,1032.63
2023-02-11T10:45:20.126Z,1032.68
2023-02-11T10:46:20.157Z,1032.68
2023-02-11T10:47:20.114Z,1032.69
2023-02-11T10:48:20.092Z,1032.72
2023-02-11T10:49:20.083Z,1032.72
2023-02-11T10:50:20.053Z,1032.75
2023-02-11T10:51:20.053Z,1032.73
2023-02-11T10:52:20.034Z,1032.76
2023-02-11T10:53:20.032Z,1032.73
2023-02-11T10:54:20.028Z,1032.75
2023-02-11T10:55:20.021Z,1032.73
2023-02-11T10:56:19.985Z,1032.73
2023-02-11T10:57:19.974Z,1032.71
2023-02-11T10:58:19.964Z,1032.66
2023-02-11T10:59:21.596Z,1032.70
2023-02-11T11:00:19.926Z,1032.67
2023-02-11T11:01:24.851Z,1032.65
2023-02-11T11:02:20.912Z,1032.67
2023-02-11T11:03:19.888Z,1032.68
2023-02-11T11:04:19.961Z,1032.69
2023-02-11T11:05:19.886Z,1032.76
2023-02-11T11:06:19.848Z,1032.69
2023-02-11T11:07:19.858Z,1032.73
2023-02-11T11:08:19.820Z,1032.75
2023-02-11T11:09:19.816Z,1032.76
2023-02-11T11:10:19.793Z,1032.76
2023-02-11T11:11:19.785Z,1032.76
2023-02-11T11:12:19.766Z,1032.76
2023-02-11T11:13:19.788Z,1032.72
2023-02-11T11:14:19.788Z,1032.72
2023-02-11T11:15:19.734Z,1032.75
2023-02-11T11:16:19.746Z,1032.74
2023-02-11T11:17:19.705Z,1032.74
2023-02-11T11:18:22.433Z,1032.75
2023-02-11T11:19:20.390Z,1032.78
2023-02-11T11:20:19.656Z,1032.79
2023-02-11T11:21:19.655Z,1032.77
2023-02-11T11:22:19.636Z,1032.82
2023-02-11T11:23:19.636Z,1032.86
2023-02-11T11:24:19.628Z,1032.82
2023-02-11T11:25:19.597Z,1032.82
2023-02-11T11:26:19.583Z,1032.80
2023-02-11T11:27:19.569Z,1032.81
2023-02-11T11:28:19.576Z,1032.78
2023-02-11T11:29:19.567Z,1032.74
2023-02-11T11:30:19.542Z,1032.77
2023-02-11T11:31:19.629Z,1032.78
2023-02-11T11:32:20.610Z,1032.80
2023-02-11T11:33:19.511Z,1032.79
2023-02-11T11:34:19.487Z,1032.78
2023-02-11T11:35:19.468Z,1032.78
2023-02-11T11:36:19.446Z,1032.84
2023-02-11T11:37:19.486Z,1032.81
2023-02-11T11:38:19.415Z,1032.80
2023-02-11T11:39:19.424Z,1032.79
2023-02-11T11:40:19.398Z,1032.79
2023-02-11T11:41:19.384Z,1032.83
2023-02-11T11:42:19.366Z,1032.83
2023-02-11T11:43:21.364Z,1032.83
2023-02-11T11:44:19.355Z,1032.78
2023-02-11T11:45:19.346Z,1032.79
2023-02-11T11:46:19.327Z,1032.81
2023-02-11T11:47:19.308Z,1032.80
2023-02-11T11:48:19.293Z,1032.80
2023-02-11T11:49:19.291Z,1032.79
2023-02-11T11:50:21.111Z,1032.77
2023-02-11T11:51:19.252Z,1032.78
2023-02-11T11:52:19.242Z,1032.76
2023-02-11T11:53:19.212Z,1032.72
2023-02-11T11:54:19.227Z,1032.73
2023-02-11T11:55:19.192Z,1032.76
2023-02-11T11:56:19.195Z,1032.74
2023-02-11T11:57:19.164Z,1032.68
2023-02-11T11:58:19.155Z,1032.71
2023-02-11T11:59:19.152Z,1032.69
2023-02-11T12:00:19.143Z,1032.70
2023-02-11T12:01:19.119Z,1032.67
2023-02-11T12:02:19.180Z,1032.71
2023-02-11T12:03:19.150Z,1032.67
2023-02-11T12:04:19.083Z,1032.69
2023-02-11T12:05:19.062Z,1032.64
2023-02-11T12:06:19.051Z,1032.71